sensor_id;sensor_type;location;lat;lon;timestamp;P1;P2;P0
80861;PMS5003;71798;54.942;73.444;2023-11-19T02:34:03;15.00;12.00;7.00
80861;PMS5003;71798;54.942;73.444;2023-11-19T02:36:29;6.25;5.25;3.25
80861;PMS5003;71798;54.942;73.444;2023-11-19T02:38:56;12.00;11.50;7.75
80861;PMS5003;71798;54.942;73.444;2023-11-19T02:41:22;8.00;6.75;4.00
80861;PMS5003;71798;54.942;73.444;2023-11-19T02:43:48;4.00;3.00;1.75
80861;PMS5003;71798;54.942;73.444;2023-11-19T02:46:14;6.00;6.00;3.00
80861;PMS5003;71798;54.942;73.444;2023-11-19T02:48:40;7.00;6.25;4.00
80861;PMS5003;71798;54.942;73.444;2023-11-19T02:51:07;7.00;5.25;3.00
80861;PMS5003;71798;54.942;73.444;2023-11-19T02:53:36;5.00;5.00;3.00
80861;PMS5003;71798;54.942;73.444;2023-11-19T02:56:06;8.50;7.00;5.00
80861;PMS5003;71798;54.942;73.444;2023-11-19T02:58:42;9.00;8.00;4.00
80861;PMS5003;71798;54.942;73.444;2023-11-19T03:01:11;6.75;6.00;3.00
80861;PMS5003;71798;54.942;73.444;2023-11-19T03:03:49;4.00;3.00;2.00
80861;PMS5003;71798;54.942;73.444;2023-11-19T03:06:20;5.00;4.00;2.00
80861;PMS5003;71798;54.942;73.444;2023-11-19T03:08:47;7.75;6.00;4.00
80861;PMS5003;71798;54.942;73.444;2023-11-19T03:11:14;5.50;4.50;2.50
80861;PMS5003;71798;54.942;73.444;2023-11-19T03:13:40;5.00;4.00;2.00
80861;PMS5003;71798;54.942;73.444;2023-11-19T03:16:06;5.75;5.00;3.00
80861;PMS5003;71798;54.942;73.444;2023-11-19T03:18:33;6.50;5.50;2.75
80861;PMS5003;71798;54.942;73.444;2023-11-19T03:20:59;6.00;5.00;2.00
80861;PMS5003;71798;54.942;73.444;2023-11-19T03:23:25;6.00;6.00;3.00
80861;PMS5003;71798;54.942;73.444;2023-11-19T03:25:53;10.00;8.25;5.00
80861;PMS5003;71798;54.942;73.444;2023-11-19T03:28:21;5.00;5.00;3.00
80861;PMS5003;71798;54.942;73.444;2023-11-19T03:30:47;5.00;5.00;4.00
80861;PMS5003;71798;54.942;73.444;2023-11-19T03:33:13;3.00;3.00;2.25
80861;PMS5003;71798;54.942;73.444;2023-11-19T03:35:40;3.50;3.00;1.50
80861;PMS5003;71798;54.942;73.444;2023-11-19T03:38:07;5.00;3.25;1.00
80861;PMS5003;71798;54.942;73.444;2023-11-19T03:40:33;3.00;2.00;1.00
80861;PMS5003;71798;54.942;73.444;2023-11-19T03:42:59;8.00;6.00;4.00
80861;PMS5003;71798;54.942;73.444;2023-11-19T03:45:25;6.00;5.00;2.75
80861;PMS5003;71798;54.942;73.444;2023-11-19T03:47:51;3.00;3.00;1.00
80861;PMS5003;71798;54.942;73.444;2023-11-19T03:50:17;9.00;7.00;4.00
80861;PMS5003;71798;54.942;73.444;2023-11-19T03:52:46;7.75;6.00;4.00
80861;PMS5003;71798;54.942;73.444;2023-11-19T03:55:12;5.00;4.00;2.00
80861;PMS5003;71798;54.942;73.444;2023-11-19T03:57:38;2.50;2.25;1.25
80861;PMS5003;71798;54.942;73.444;2023-11-19T04:00:05;6.50;5.25;2.50
80861;PMS5003;71798;54.942;73.444;2023-11-19T04:02:40;4.00;4.00;2.00
80861;PMS5003;71798;54.942;73.444;2023-11-19T04:05:06;4.00;4.00;2.00
80861;PMS5003;71798;54.942;73.444;2023-11-19T04:07:32;6.00;6.00;4.00
80861;PMS5003;71798;54.942;73.444;2023-11-19T04:09:58;6.50;5.50;3.00
80861;PMS5003;71798;54.942;73.444;2023-11-19T04:12:25;3.00;3.00;2.00
80861;PMS5003;71798;54.942;73.444;2023-11-19T04:14:51;4.50;4.00;3.00
80861;PMS5003;71798;54.942;73.444;2023-11-19T04:17:18;2.75;2.25;1.00
80861;PMS5003;71798;54.942;73.444;2023-11-19T04:19:44;5.50;4.75;2.50
80861;PMS5003;71798;54.942;73.444;2023-11-19T04:22:10;4.00;3.00;2.00
80861;PMS5003;71798;54.942;73.444;2023-11-19T04:24:36;8.00;6.50;4.00
80861;PMS5003;71798;54.942;73.444;2023-11-19T04:27:05;6.00;4.00;2.00
80861;PMS5003;71798;54.942;73.444;2023-11-19T04:29:32;4.00;3.50;2.25
80861;PMS5003;71798;54.942;73.444;2023-11-19T04:31:58;6.00;4.00;3.00
80861;PMS5003;71798;54.942;73.444;2023-11-19T04:34:24;4.00;4.00;2.00
80861;PMS5003;71798;54.942;73.444;2023-11-19T04:36:51;9.00;7.00;4.00
80861;PMS5003;71798;54.942;73.444;2023-11-19T04:39:17;8.00;7.00;3.25
80861;PMS5003;71798;54.942;73.444;2023-11-19T04:41:51;3.50;2.75;1.00
80861;PMS5003;71798;54.942;73.444;2023-11-19T04:44:20;8.25;8.00;5.00
80861;PMS5003;71798;54.942;73.444;2023-11-19T04:46:46;5.00;4.00;3.00
80861;PMS5003;71798;54.942;73.444;2023-11-19T04:49:13;4.25;4.00;2.00
80861;PMS5003;71798;54.942;73.444;2023-11-19T04:51:43;4.00;4.00;2.00
80861;PMS5003;71798;54.942;73.444;2023-11-19T04:54:09;5.00;4.00;2.00
80861;PMS5003;71798;54.942;73.444;2023-11-19T04:56:36;23.50;19.25;12.00
80861;PMS5003;71798;54.942;73.444;2023-11-19T04:59:05;6.00;5.00;3.00
80861;PMS5003;71798;54.942;73.444;2023-11-19T05:01:32;3.50;3.00;2.00
80861;PMS5003;71798;54.942;73.444;2023-11-19T05:03:59;4.00;3.00;1.00
80861;PMS5003;71798;54.942;73.444;2023-11-19T05:06:28;8.00;6.00;4.00
80861;PMS5003;71798;54.942;73.444;2023-11-19T05:08:55;5.00;4.00;2.00
80861;PMS5003;71798;54.942;73.444;2023-11-19T05:11:22;6.00;5.25;3.00
80861;PMS5003;71798;54.942;73.444;2023-11-19T05:13:48;5.00;4.50;2.00
80861;PMS5003;71798;54.942;73.444;2023-11-19T05:16:14;3.00;3.00;2.00
80861;PMS5003;71798;54.942;73.444;2023-11-19T05:18:41;5.00;4.00;2.00
80861;PMS5003;71798;54.942;73.444;2023-11-19T05:21:07;7.00;6.00;4.00
80861;PMS5003;71798;54.942;73.444;2023-11-19T05:23:33;4.00;3.00;2.00
80861;PMS5003;71798;54.942;73.444;2023-11-19T05:26:03;4.25;4.00;3.00
80861;PMS5003;71798;54.942;73.444;2023-11-19T05:28:29;3.75;3.50;2.00
80861;PMS5003;71798;54.942;73.444;2023-11-19T05:30:55;7.00;6.00;4.00
80861;PMS5003;71798;54.942;73.444;2023-11-19T05:33:21;7.00;6.00;3.00
80861;PMS5003;71798;54.942;73.444;2023-11-19T05:35:48;7.00;6.00;3.00
80861;PMS5003;71798;54.942;73.444;2023-11-19T05:38:30;5.00;5.00;3.00
80861;PMS5003;71798;54.942;73.444;2023-11-19T05:40:56;8.00;7.00;3.00
80861;PMS5003;71798;54.942;73.444;2023-11-19T05:43:22;7.00;6.00;4.00
80861;PMS5003;71798;54.942;73.444;2023-11-19T05:45:50;10.00;7.00;4.00
80861;PMS5003;71798;54.942;73.444;2023-11-19T05:48:18;6.00;4.75;2.00
80861;PMS5003;71798;54.942;73.444;2023-11-19T05:50:46;1.00;1.00;1.00
80861;PMS5003;71798;54.942;73.444;2023-11-19T05:53:15;1.75;2.00;1.00
80861;PMS5003;71798;54.942;73.444;2023-11-19T05:55:41;3.00;2.75;1.00
80861;PMS5003;71798;54.942;73.444;2023-11-19T05:58:36;3.00;3.00;1.00
80861;PMS5003;71798;54.942;73.444;2023-11-19T06:01:03;4.50;4.25;2.75
80861;PMS5003;71798;54.942;73.444;2023-11-19T06:03:30;2.00;2.00;1.00
80861;PMS5003;71798;54.942;73.444;2023-11-19T06:05:56;1.00;1.00;1.00
80861;PMS5003;71798;54.942;73.444;2023-11-19T06:08:22;4.00;3.50;2.00
80861;PMS5003;71798;54.942;73.444;2023-11-19T06:10:48;5.00;4.00;2.00
80861;PMS5003;71798;54.942;73.444;2023-11-19T06:13:16;4.00;4.00;2.00
80861;PMS5003;71798;54.942;73.444;2023-11-19T06:15:42;5.75;4.00;2.25
80861;PMS5003;71798;54.942;73.444;2023-11-19T06:18:57;3.00;3.00;2.00
80861;PMS5003;71798;54.942;73.444;2023-11-19T06:21:30;4.00;4.00;3.00
80861;PMS5003;71798;54.942;73.444;2023-11-19T06:24:02;4.00;3.00;1.25
80861;PMS5003;71798;54.942;73.444;2023-11-19T06:26:36;2.50;1.75;1.00
80861;PMS5003;71798;54.942;73.444;2023-11-19T06:29:07;2.75;1.50;1.00
80861;PMS5003;71798;54.942;73.444;2023-11-19T06:31:36;5.00;3.00;2.00
80861;PMS5003;71798;54.942;73.444;2023-11-19T06:34:11;2.00;1.00;1.00
80861;PMS5003;71798;54.942;73.444;2023-11-19T06:36:44;5.00;4.00;3.00
80861;PMS5003;71798;54.942;73.444;2023-11-19T06:39:14;4.00;3.00;2.25
80861;PMS5003;71798;54.942;73.444;2023-11-19T06:41:46;4.00;3.25;1.50
80861;PMS5003;71798;54.942;73.444;2023-11-19T06:44:14;1.75;1.50;1.00
80861;PMS5003;71798;54.942;73.444;2023-11-19T06:46:44;3.00;2.00;1.00
80861;PMS5003;71798;54.942;73.444;2023-11-19T06:49:14;2.50;2.25;1.00
80861;PMS5003;71798;54.942;73.444;2023-11-19T06:51:43;3.75;3.00;3.00
80861;PMS5003;71798;54.942;73.444;2023-11-19T06:54:13;5.00;4.00;2.00
80861;PMS5003;71798;54.942;73.444;2023-11-19T06:56:44;5.75;4.50;3.00
80861;PMS5003;71798;54.942;73.444;2023-11-19T06:59:13;2.00;2.00;1.00
80861;PMS5003;71798;54.942;73.444;2023-11-19T07:01:44;7.00;5.00;3.00
80861;PMS5003;71798;54.942;73.444;2023-11-19T07:04:14;6.75;5.25;3.00
80861;PMS5003;71798;54.942;73.444;2023-11-19T07:06:44;6.25;5.75;3.00
80861;PMS5003;71798;54.942;73.444;2023-11-19T07:09:16;2.00;2.00;1.00
80861;PMS5003;71798;54.942;73.444;2023-11-19T07:11:47;5.50;5.00;3.00
80861;PMS5003;71798;54.942;73.444;2023-11-19T07:14:19;5.00;4.00;3.00
80861;PMS5003;71798;54.942;73.444;2023-11-19T07:16:48;16.00;10.75;5.00
80861;PMS5003;71798;54.942;73.444;2023-11-19T07:19:17;6.00;5.00;3.00
80861;PMS5003;71798;54.942;73.444;2023-11-19T07:21:44;3.50;3.00;1.00
80861;PMS5003;71798;54.942;73.444;2023-11-19T07:24:15;3.00;3.00;2.00
80861;PMS5003;71798;54.942;73.444;2023-11-19T07:26:43;5.00;5.00;2.00
80861;PMS5003;71798;54.942;73.444;2023-11-19T07:29:12;6.25;5.25;3.00
80861;PMS5003;71798;54.942;73.444;2023-11-19T07:31:42;4.00;4.00;3.00
80861;PMS5003;71798;54.942;73.444;2023-11-19T07:34:11;3.00;2.25;1.00
80861;PMS5003;71798;54.942;73.444;2023-11-19T07:36:41;3.00;3.00;2.00
80861;PMS5003;71798;54.942;73.444;2023-11-19T07:39:11;4.00;4.00;3.00
80861;PMS5003;71798;54.942;73.444;2023-11-19T07:41:40;3.00;2.50;1.50
80861;PMS5003;71798;54.942;73.444;2023-11-19T07:44:09;4.25;4.00;2.00
80861;PMS5003;71798;54.942;73.444;2023-11-19T07:46:38;3.25;2.75;1.50
80861;PMS5003;71798;54.942;73.444;2023-11-19T07:49:12;4.00;4.00;2.00
80861;PMS5003;71798;54.942;73.444;2023-11-19T07:51:42;9.00;7.00;5.00
80861;PMS5003;71798;54.942;73.444;2023-11-19T07:54:11;6.00;5.25;3.00
80861;PMS5003;71798;54.942;73.444;2023-11-19T07:56:43;5.00;4.25;2.00
80861;PMS5003;71798;54.942;73.444;2023-11-19T07:59:13;8.00;6.00;3.00
80861;PMS5003;71798;54.942;73.444;2023-11-19T08:01:42;7.00;6.00;3.00
80861;PMS5003;71798;54.942;73.444;2023-11-19T08:04:11;5.00;4.00;2.00
80861;PMS5003;71798;54.942;73.444;2023-11-19T08:06:44;5.00;4.00;3.00
80861;PMS5003;71798;54.942;73.444;2023-11-19T08:09:12;4.00;4.00;3.00
80861;PMS5003;71798;54.942;73.444;2023-11-19T08:11:44;6.00;6.00;4.00
80861;PMS5003;71798;54.942;73.444;2023-11-19T08:14:13;6.00;5.00;3.00
80861;PMS5003;71798;54.942;73.444;2023-11-19T08:16:42;1.75;1.75;1.00
80861;PMS5003;71798;54.942;73.444;2023-11-19T08:19:10;6.50;5.50;2.75
80861;PMS5003;71798;54.942;73.444;2023-11-19T08:21:42;3.00;2.00;1.25
80861;PMS5003;71798;54.942;73.444;2023-11-19T08:24:12;2.00;2.00;1.00
80861;PMS5003;71798;54.942;73.444;2023-11-19T08:26:42;5.00;4.50;3.00
80861;PMS5003;71798;54.942;73.444;2023-11-19T08:29:11;5.00;5.00;3.00
80861;PMS5003;71798;54.942;73.444;2023-11-19T08:31:40;8.00;7.00;4.00
80861;PMS5003;71798;54.942;73.444;2023-11-19T08:34:11;8.00;6.00;3.00
80861;PMS5003;71798;54.942;73.444;2023-11-19T08:36:39;4.75;3.75;2.25
80861;PMS5003;71798;54.942;73.444;2023-11-19T08:39:12;3.25;3.25;2.00
80861;PMS5003;71798;54.942;73.444;2023-11-19T08:41:45;9.00;6.25;4.00
80861;PMS5003;71798;54.942;73.444;2023-11-19T08:44:15;6.50;5.50;3.00
80861;PMS5003;71798;54.942;73.444;2023-11-19T08:46:50;6.00;5.00;2.00
80861;PMS5003;71798;54.942;73.444;2023-11-19T08:49:20;5.00;4.00;2.00
80861;PMS5003;71798;54.942;73.444;2023-11-19T08:51:54;5.75;4.75;2.25
80861;PMS5003;71798;54.942;73.444;2023-11-19T08:54:26;4.75;4.00;2.00
80861;PMS5003;71798;54.942;73.444;2023-11-19T08:56:55;7.25;6.50;4.00
80861;PMS5003;71798;54.942;73.444;2023-11-19T08:59:26;9.00;7.00;3.75
80861;PMS5003;71798;54.942;73.444;2023-11-19T09:01:56;10.25;9.00;5.00
80861;PMS5003;71798;54.942;73.444;2023-11-19T09:04:24;6.00;5.25;3.00
80861;PMS5003;71798;54.942;73.444;2023-11-19T09:06:53;6.00;5.00;2.50
80861;PMS5003;71798;54.942;73.444;2023-11-19T09:09:24;8.00;7.00;3.00
80861;PMS5003;71798;54.942;73.444;2023-11-19T09:11:54;3.00;3.00;2.00
80861;PMS5003;71798;54.942;73.444;2023-11-19T09:14:23;2.75;2.00;1.25
80861;PMS5003;71798;54.942;73.444;2023-11-19T09:16:53;8.25;7.25;4.00
80861;PMS5003;71798;54.942;73.444;2023-11-19T09:19:26;4.00;4.00;2.00
80861;PMS5003;71798;54.942;73.444;2023-11-19T09:21:55;3.00;3.00;2.00
80861;PMS5003;71798;54.942;73.444;2023-11-19T09:24:24;4.00;4.00;3.00
80861;PMS5003;71798;54.942;73.444;2023-11-19T09:26:54;3.25;2.00;0.25
80861;PMS5003;71798;54.942;73.444;2023-11-19T09:29:23;5.00;4.00;1.50
80861;PMS5003;71798;54.942;73.444;2023-11-19T09:31:51;2.00;2.00;1.00
80861;PMS5003;71798;54.942;73.444;2023-11-19T09:34:19;6.50;5.25;3.00
80861;PMS5003;71798;54.942;73.444;2023-11-19T09:36:48;4.50;3.75;2.00
80861;PMS5003;71798;54.942;73.444;2023-11-19T09:39:17;2.50;2.00;1.00
80861;PMS5003;71798;54.942;73.444;2023-11-19T09:41:48;2.00;2.00;1.00
80861;PMS5003;71798;54.942;73.444;2023-11-19T09:44:19;2.00;2.00;1.50
80861;PMS5003;71798;54.942;73.444;2023-11-19T09:46:47;4.00;3.50;2.00
80861;PMS5003;71798;54.942;73.444;2023-11-19T09:49:18;2.75;2.00;2.00
80861;PMS5003;71798;54.942;73.444;2023-11-19T09:51:57;7.00;6.00;3.00
80861;PMS5003;71798;54.942;73.444;2023-11-19T09:54:26;5.50;5.00;3.00
80861;PMS5003;71798;54.942;73.444;2023-11-19T09:56:58;9.00;8.00;5.00
80861;PMS5003;71798;54.942;73.444;2023-11-19T09:59:30;8.25;7.00;4.00
80861;PMS5003;71798;54.942;73.444;2023-11-19T10:01:59;3.75;3.50;2.00
80861;PMS5003;71798;54.942;73.444;2023-11-19T10:04:30;4.00;4.00;2.00
80861;PMS5003;71798;54.942;73.444;2023-11-19T10:07:02;7.00;6.00;3.00
80861;PMS5003;71798;54.942;73.444;2023-11-19T10:09:32;4.25;3.50;2.00
80861;PMS5003;71798;54.942;73.444;2023-11-19T10:12:01;3.00;3.00;2.00
80861;PMS5003;71798;54.942;73.444;2023-11-19T10:14:30;6.00;5.00;4.00
80861;PMS5003;71798;54.942;73.444;2023-11-19T10:17:03;6.75;5.50;3.00
80861;PMS5003;71798;54.942;73.444;2023-11-19T10:19:40;5.00;4.25;2.25
80861;PMS5003;71798;54.942;73.444;2023-11-19T10:22:11;11.00;9.00;7.00
80861;PMS5003;71798;54.942;73.444;2023-11-19T10:24:45;4.75;4.00;2.00
80861;PMS5003;71798;54.942;73.444;2023-11-19T10:27:23;5.00;4.25;3.25
80861;PMS5003;71798;54.942;73.444;2023-11-19T10:29:52;11.00;11.00;7.00
80861;PMS5003;71798;54.942;73.444;2023-11-19T10:32:24;11.00;8.50;4.75
80861;PMS5003;71798;54.942;73.444;2023-11-19T10:35:04;8.50;7.00;4.00
80861;PMS5003;71798;54.942;73.444;2023-11-19T10:37:34;12.00;9.50;5.00
80861;PMS5003;71798;54.942;73.444;2023-11-19T10:40:05;13.00;10.25;6.50
80861;PMS5003;71798;54.942;73.444;2023-11-19T10:42:41;12.00;10.00;5.50
80861;PMS5003;71798;54.942;73.444;2023-11-19T10:45:32;12.75;11.00;6.00
80861;PMS5003;71798;54.942;73.444;2023-11-19T10:48:03;12.75;11.75;7.00
80861;PMS5003;71798;54.942;73.444;2023-11-19T10:50:36;7.00;7.00;3.00
80861;PMS5003;71798;54.942;73.444;2023-11-19T10:53:11;18.00;16.00;10.00
80861;PMS5003;71798;54.942;73.444;2023-11-19T10:55:45;8.75;7.75;5.25
80861;PMS5003;71798;54.942;73.444;2023-11-19T10:58:20;18.50;15.50;10.00
80861;PMS5003;71798;54.942;73.444;2023-11-19T11:00:57;10.75;9.25;5.50
80861;PMS5003;71798;54.942;73.444;2023-11-19T11:03:38;18.00;16.00;11.00
80861;PMS5003;71798;54.942;73.444;2023-11-19T11:06:09;9.25;7.50;3.75
80861;PMS5003;71798;54.942;73.444;2023-11-19T11:08:44;11.25;11.00;7.00
80861;PMS5003;71798;54.942;73.444;2023-11-19T11:11:16;6.00;5.25;3.25
80861;PMS5003;71798;54.942;73.444;2023-11-19T11:13:51;7.75;6.00;2.75
80861;PMS5003;71798;54.942;73.444;2023-11-19T11:16:21;10.00;8.00;4.50
80861;PMS5003;71798;54.942;73.444;2023-11-19T11:19:15;8.00;7.00;3.25
80861;PMS5003;71798;54.942;73.444;2023-11-19T11:40:21;18.50;14.00;9.00
80861;PMS5003;71798;54.942;73.444;2023-11-19T11:43:53;23.50;19.25;11.00
80861;PMS5003;71798;54.942;73.444;2023-11-19T11:51:00;19.25;16.25;9.25
80861;PMS5003;71798;54.942;73.444;2023-11-19T11:58:06;41.25;34.00;19.50
80861;PMS5003;71798;54.942;73.444;2023-11-19T12:02:02;25.50;21.00;12.25
80861;PMS5003;71798;54.942;73.444;2023-11-19T12:05:38;39.25;32.00;20.00
80861;PMS5003;71798;54.942;73.444;2023-11-19T12:09:04;30.50;24.75;14.00
80861;PMS5003;71798;54.942;73.444;2023-11-19T12:12:35;31.00;24.25;14.25
80861;PMS5003;71798;54.942;73.444;2023-11-19T12:16:07;45.00;35.00;20.00
80861;PMS5003;71798;54.942;73.444;2023-11-19T12:19:40;22.00;19.00;10.25
80861;PMS5003;71798;54.942;73.444;2023-11-19T12:26:44;35.00;28.50;18.00
80861;PMS5003;71798;54.942;73.444;2023-11-19T12:30:25;45.00;36.00;20.50
80861;PMS5003;71798;54.942;73.444;2023-11-19T12:33:55;45.00;36.00;22.00
80861;PMS5003;71798;54.942;73.444;2023-11-19T12:37:26;46.75;37.75;23.00
80861;PMS5003;71798;54.942;73.444;2023-11-19T12:41:07;34.50;28.00;16.00
80861;PMS5003;71798;54.942;73.444;2023-11-19T12:44:37;48.50;39.00;24.00
80861;PMS5003;71798;54.942;73.444;2023-11-19T12:48:08;34.75;27.00;15.00
80861;PMS5003;71798;54.942;73.444;2023-11-19T12:51:39;40.75;33.25;21.50
80861;PMS5003;71798;54.942;73.444;2023-11-19T12:58:46;42.00;34.00;21.00
80861;PMS5003;71798;54.942;73.444;2023-11-19T13:02:17;36.50;28.50;17.25
80861;PMS5003;71798;54.942;73.444;2023-11-19T13:04:43;24.75;21.25;12.50
80861;PMS5003;71798;54.942;73.444;2023-11-19T13:07:20;34.50;28.75;17.50
80861;PMS5003;71798;54.942;73.444;2023-11-19T13:09:46;25.00;21.00;14.00
80861;PMS5003;71798;54.942;73.444;2023-11-19T13:12:15;35.00;27.50;17.00
80861;PMS5003;71798;54.942;73.444;2023-11-19T13:14:42;36.00;29.00;17.75
80861;PMS5003;71798;54.942;73.444;2023-11-19T13:17:12;32.25;28.00;17.00
80861;PMS5003;71798;54.942;73.444;2023-11-19T13:19:38;34.50;29.00;18.00
80861;PMS5003;71798;54.942;73.444;2023-11-19T13:22:05;30.50;25.00;14.00
80861;PMS5003;71798;54.942;73.444;2023-11-19T13:24:34;34.50;28.00;16.00
80861;PMS5003;71798;54.942;73.444;2023-11-19T13:27:01;24.50;19.50;11.75
80861;PMS5003;71798;54.942;73.444;2023-11-19T13:29:38;25.50;21.50;12.25
80861;PMS5003;71798;54.942;73.444;2023-11-19T13:32:04;24.25;19.25;12.00
80861;PMS5003;71798;54.942;73.444;2023-11-19T13:34:43;20.00;16.00;9.00
80861;PMS5003;71798;54.942;73.444;2023-11-19T13:37:09;32.00;26.00;16.00
80861;PMS5003;71798;54.942;73.444;2023-11-19T13:39:36;31.00;25.25;15.25
80861;PMS5003;71798;54.942;73.444;2023-11-19T13:42:02;34.00;26.50;16.50
80861;PMS5003;71798;54.942;73.444;2023-11-19T13:44:29;24.50;20.50;11.75
80861;PMS5003;71798;54.942;73.444;2023-11-19T13:46:55;35.50;29.50;18.25
80861;PMS5003;71798;54.942;73.444;2023-11-19T13:49:30;43.25;35.00;20.00
80861;PMS5003;71798;54.942;73.444;2023-11-19T13:51:56;37.00;29.00;18.00
80861;PMS5003;71798;54.942;73.444;2023-11-19T13:54:23;34.00;27.00;17.00
80861;PMS5003;71798;54.942;73.444;2023-11-19T13:56:49;35.00;29.00;17.00
80861;PMS5003;71798;54.942;73.444;2023-11-19T13:59:21;36.75;29.00;16.00
80861;PMS5003;71798;54.942;73.444;2023-11-19T14:01:48;44.00;35.00;21.00
80861;PMS5003;71798;54.942;73.444;2023-11-19T14:04:15;37.75;30.25;18.25
80861;PMS5003;71798;54.942;73.444;2023-11-19T14:06:41;41.50;33.25;20.50
80861;PMS5003;71798;54.942;73.444;2023-11-19T14:09:10;50.00;38.75;23.25
80861;PMS5003;71798;54.942;73.444;2023-11-19T14:11:36;44.00;34.75;19.00
80861;PMS5003;71798;54.942;73.444;2023-11-19T14:14:03;54.00;41.00;24.00
80861;PMS5003;71798;54.942;73.444;2023-11-19T14:16:29;54.75;42.00;24.00
80861;PMS5003;71798;54.942;73.444;2023-11-19T14:18:55;52.00;40.00;23.00
80861;PMS5003;71798;54.942;73.444;2023-11-19T14:21:22;37.25;27.75;16.25
80861;PMS5003;71798;54.942;73.444;2023-11-19T14:23:48;44.50;34.75;20.25
80861;PMS5003;71798;54.942;73.444;2023-11-19T14:26:14;47.75;37.50;23.75
80861;PMS5003;71798;54.942;73.444;2023-11-19T14:28:40;42.00;33.00;20.00
80861;PMS5003;71798;54.942;73.444;2023-11-19T14:31:07;45.50;36.00;22.00
80861;PMS5003;71798;54.942;73.444;2023-11-19T14:33:33;48.00;37.00;23.00
80861;PMS5003;71798;54.942;73.444;2023-11-19T14:36:01;44.75;35.50;21.00
80861;PMS5003;71798;54.942;73.444;2023-11-19T14:38:28;50.00;40.00;25.00
80861;PMS5003;71798;54.942;73.444;2023-11-19T14:40:54;42.75;35.25;22.25
80861;PMS5003;71798;54.942;73.444;2023-11-19T14:43:21;35.00;29.50;19.50
80861;PMS5003;71798;54.942;73.444;2023-11-19T14:45:47;34.75;28.50;18.75
80861;PMS5003;71798;54.942;73.444;2023-11-19T14:48:13;30.00;23.00;14.50
80861;PMS5003;71798;54.942;73.444;2023-11-19T14:50:40;26.00;23.00;14.00
80861;PMS5003;71798;54.942;73.444;2023-11-19T14:53:06;31.75;25.00;14.00
80861;PMS5003;71798;54.942;73.444;2023-11-19T14:55:33;26.00;22.00;13.50
80861;PMS5003;71798;54.942;73.444;2023-11-19T14:57:59;18.25;14.25;7.25
80861;PMS5003;71798;54.942;73.444;2023-11-19T15:00:26;26.25;20.75;12.00
80861;PMS5003;71798;54.942;73.444;2023-11-19T15:02:53;23.00;20.00;11.25
80861;PMS5003;71798;54.942;73.444;2023-11-19T15:05:20;26.00;22.00;14.00
80861;PMS5003;71798;54.942;73.444;2023-11-19T15:07:48;31.00;25.75;16.00
80861;PMS5003;71798;54.942;73.444;2023-11-19T15:10:14;26.00;23.00;14.00
80861;PMS5003;71798;54.942;73.444;2023-11-19T15:12:40;23.00;18.75;10.50
80861;PMS5003;71798;54.942;73.444;2023-11-19T15:15:08;21.00;18.75;10.50
80861;PMS5003;71798;54.942;73.444;2023-11-19T15:17:40;35.00;27.00;17.00
80861;PMS5003;71798;54.942;73.444;2023-11-19T15:20:06;40.00;33.00;20.00
80861;PMS5003;71798;54.942;73.444;2023-11-19T15:22:33;24.75;20.50;11.75
80861;PMS5003;71798;54.942;73.444;2023-11-19T15:24:59;23.75;18.75;10.50
80861;PMS5003;71798;54.942;73.444;2023-11-19T15:27:25;36.00;29.00;17.00
80861;PMS5003;71798;54.942;73.444;2023-11-19T15:29:53;31.50;25.00;15.00
80861;PMS5003;71798;54.942;73.444;2023-11-19T15:32:19;22.75;20.00;13.00
80861;PMS5003;71798;54.942;73.444;2023-11-19T15:34:45;29.75;23.50;13.75
80861;PMS5003;71798;54.942;73.444;2023-11-19T15:37:12;24.25;21.00;12.00
80861;PMS5003;71798;54.942;73.444;2023-11-19T15:39:40;48.00;36.75;20.25
80861;PMS5003;71798;54.942;73.444;2023-11-19T15:42:06;39.75;31.50;17.00
80861;PMS5003;71798;54.942;73.444;2023-11-19T15:44:33;45.50;36.00;22.00
80861;PMS5003;71798;54.942;73.444;2023-11-19T15:46:59;25.00;20.75;11.50
80861;PMS5003;71798;54.942;73.444;2023-11-19T15:49:25;28.25;22.50;12.00
80861;PMS5003;71798;54.942;73.444;2023-11-19T15:51:52;37.00;30.00;18.00
80861;PMS5003;71798;54.942;73.444;2023-11-19T15:54:18;24.00;19.00;10.50
80861;PMS5003;71798;54.942;73.444;2023-11-19T15:56:44;29.75;23.50;14.00
80861;PMS5003;71798;54.942;73.444;2023-11-19T15:59:11;33.00;27.00;14.00
80861;PMS5003;71798;54.942;73.444;2023-11-19T16:01:37;27.00;20.75;10.00
80861;PMS5003;71798;54.942;73.444;2023-11-19T16:04:05;37.50;29.25;17.75
80861;PMS5003;71798;54.942;73.444;2023-11-19T16:06:32;27.50;22.00;12.00
80861;PMS5003;71798;54.942;73.444;2023-11-19T16:08:58;37.00;29.25;15.50
80861;PMS5003;71798;54.942;73.444;2023-11-19T16:11:25;34.25;27.50;15.75
80861;PMS5003;71798;54.942;73.444;2023-11-19T16:13:52;29.00;23.00;13.00
80861;PMS5003;71798;54.942;73.444;2023-11-19T16:16:18;39.00;30.00;17.00
80861;PMS5003;71798;54.942;73.444;2023-11-19T16:18:45;24.00;21.00;13.00
80861;PMS5003;71798;54.942;73.444;2023-11-19T16:21:11;24.00;19.00;10.50
80861;PMS5003;71798;54.942;73.444;2023-11-19T16:23:37;36.25;29.00;16.75
80861;PMS5003;71798;54.942;73.444;2023-11-19T16:26:03;23.00;19.00;12.00
80861;PMS5003;71798;54.942;73.444;2023-11-19T16:28:31;45.00;35.00;21.75
80861;PMS5003;71798;54.942;73.444;2023-11-19T16:30:57;28.50;24.00;14.50
80861;PMS5003;71798;54.942;73.444;2023-11-19T16:33:23;31.75;25.50;15.00
80861;PMS5003;71798;54.942;73.444;2023-11-19T16:35:49;24.50;20.75;12.00
80861;PMS5003;71798;54.942;73.444;2023-11-19T16:38:16;24.75;21.25;11.00
80861;PMS5003;71798;54.942;73.444;2023-11-19T16:40:42;17.25;14.75;9.00
80861;PMS5003;71798;54.942;73.444;2023-11-19T16:43:08;26.50;21.50;11.50
80861;PMS5003;71798;54.942;73.444;2023-11-19T16:45:35;24.75;20.50;11.00
80861;PMS5003;71798;54.942;73.444;2023-11-19T16:48:01;18.75;16.50;9.00
80861;PMS5003;71798;54.942;73.444;2023-11-19T16:50:29;27.00;23.00;13.00
80861;PMS5003;71798;54.942;73.444;2023-11-19T16:52:55;23.50;19.75;12.75
80861;PMS5003;71798;54.942;73.444;2023-11-19T16:55:21;11.75;10.00;6.00
80861;PMS5003;71798;54.942;73.444;2023-11-19T16:57:48;23.50;19.75;11.00
80861;PMS5003;71798;54.942;73.444;2023-11-19T17:00:14;26.75;22.25;13.50
80861;PMS5003;71798;54.942;73.444;2023-11-19T17:02:40;21.00;15.25;9.00
80861;PMS5003;71798;54.942;73.444;2023-11-19T17:05:09;27.00;22.25;13.25
80861;PMS5003;71798;54.942;73.444;2023-11-19T17:07:36;21.25;18.00;10.75
80861;PMS5003;71798;54.942;73.444;2023-11-19T17:10:02;22.00;18.00;9.25
80861;PMS5003;71798;54.942;73.444;2023-11-19T17:12:29;26.25;22.25;12.25
80861;PMS5003;71798;54.942;73.444;2023-11-19T17:14:56;27.50;21.25;12.75
80861;PMS5003;71798;54.942;73.444;2023-11-19T17:17:33;38.25;30.00;17.00
80861;PMS5003;71798;54.942;73.444;2023-11-19T17:20:01;22.00;18.25;12.00
80861;PMS5003;71798;54.942;73.444;2023-11-19T17:22:31;7.50;6.75;4.00
80861;PMS5003;71798;54.942;73.444;2023-11-19T17:24:58;14.50;12.50;7.50
80861;PMS5003;71798;54.942;73.444;2023-11-19T17:27:25;30.50;24.50;12.75
80861;PMS5003;71798;54.942;73.444;2023-11-19T17:29:54;30.25;25.00;16.00